| time (UTC) | temp C | wind direction | speed KPH | gust KPH | rain 1hr cm | rain 24hr cm | rain mn cm | humidity % | barometer mb |
| 20260508170028 | 20 | 139 | 1.6 | 20.9 | 0.00 | 0.00 | 0.00 | 44 | 1015.9 |
| 20260508164528 | 18 | 184 | 6.4 | 22.5 | 0.00 | 0.00 | 0.00 | 40 | 1016.4 |
| 20260508163027 | 18 | 285 | 4.8 | 20.9 | 0.00 | 0.00 | 0.00 | 42 | 1016.6 |
| 20260508161520 | 18 | 278 | 11.3 | 22.5 | 0.00 | 0.00 | 0.00 | 41 | 1016.9 |
| 20260508160026 | 18 | 240 | 4.8 | 17.7 | 0.00 | 0.00 | 0.00 | 45 | 1017.2 |
| 20260508154510 | 17 | 236 | 4.8 | 17.7 | 0.00 | 0.00 | 0.00 | 42 | 1017.3 |
| 20260508153014 | 18 | 217 | 4.8 | 14.5 | 0.00 | 0.00 | 0.00 | 46 | 1017.2 |
| 20260508151519 | 17 | 264 | 6.4 | 14.5 | 0.00 | 0.00 | 0.00 | 41 | 1017.3 |
| 20260508150013 | 17 | 231 | 4.8 | 12.9 | 0.00 | 0.00 | 0.00 | 46 | 1017.2 |
| 20260508144507 | 16 | 269 | 11.3 | 17.7 | 0.00 | 0.00 | 0.00 | 42 | 1017.3 |
| 20260508143015 | 16 | 138 | 3.2 | 12.9 | 0.00 | 0.00 | 0.00 | 48 | 1017.4 |
| 20260508141521 | 15 | 260 | 6.4 | 14.5 | 0.00 | 0.00 | 0.00 | 50 | 1017.4 |
| 20260508140026 | 15 | 309 | 1.6 | 6.4 | 0.00 | 0.00 | 0.00 | 64 | 1017.4 |
| 20260508134508 | 12 | 291 | 0.0 | 8.0 | 0.00 | 0.00 | 0.00 | 69 | 1017.4 |
| 20260508133016 | 11 | 273 | 3.2 | 6.4 | 0.00 | 0.00 | 0.00 | 70 | 1017.6 |
| 20260508131517 | 10 | 269 | 1.6 | 6.4 | 0.00 | 0.00 | 0.00 | 74 | 1017.7 |
| 20260508130020 | 9 | 274 | 0.0 | 3.2 | 0.00 | 0.00 | 0.00 | 85 | 1017.8 |
| 20260508124524 | 7 | 252 | 0.0 | 0.0 | 0.00 | 0.00 | 0.00 | 93 | 1017.8 |
| 20260508123007 | 6 | 252 | 0.0 | 1.6 | 0.00 | 0.00 | 0.00 | 96 | 1017.7 |
| 20260508121512 | 5 | 252 | 0.0 | 0.0 | 0.00 | 0.00 | 0.00 | 96 | 1017.8 |
| 20260508120015 | 3 | 252 | 0.0 | 0.0 | 0.00 | 0.00 | 0.00 | 96 | 1017.8 |
| 20260508114519 | 2 | 252 | 0.0 | 0.0 | 0.00 | 0.00 | 0.00 | 96 | 1017.6 |
| 20260508113024 | 1 | 252 | 0.0 | 0.0 | 0.00 | 0.00 | 0.00 | 95 | 1017.8 |
| 20260508111510 | 1 | 252 | 0.0 | 0.0 | 0.00 | 0.00 | 0.00 | 95 | 1017.7 |
| 20260508110014 | 1 | 252 | 0.0 | 0.0 | 0.00 | 0.00 | 0.00 | 94 | 1017.6 |
| 20260508104517 | 1 | 252 | 0.0 | 0.0 | 0.00 | 0.00 | 0.00 | 94 | 1017.3 |
| 20260508103022 | 1 | 252 | 0.0 | 0.0 | 0.00 | 0.00 | 0.00 | 94 | 1017.2 |
| 20260508101526 | 1 | 252 | 0.0 | 0.0 | 0.00 | 0.00 | 0.00 | 94 | 1017.1 |
| 20260508100034 | 1 | 252 | 0.0 | 0.0 | 0.00 | 0.00 | 0.00 | 94 | 1017.0 |
| 20260508094519 | 1 | 252 | 0.0 | 0.0 | 0.00 | 0.00 | 0.00 | 94 | 1016.9 |
| 20260508093020 | 1 | 252 | 0.0 | 0.0 | 0.00 | 0.00 | 0.00 | 94 | 1016.9 |
| 20260508091523 | 1 | 252 | 0.0 | 0.0 | 0.00 | 0.00 | 0.00 | 94 | 1016.9 |
| 20260508090031 | 1 | 252 | 0.0 | 0.0 | 0.00 | 0.00 | 0.00 | 94 | 1016.8 |
| 20260508084526 | 1 | 252 | 0.0 | 0.0 | 0.00 | 0.00 | 0.00 | 94 | 1016.7 |
| 20260508083016 | 1 | 252 | 0.0 | 0.0 | 0.00 | 0.00 | 0.00 | 94 | 1016.6 |
| 20260508081526 | 2 | 252 | 0.0 | 0.0 | 0.00 | 0.00 | 0.00 | 93 | 1016.7 |
| 20260508080040 | 2 | 252 | 0.0 | 0.0 | 0.00 | 0.00 | 0.00 | 93 | 1016.6 |
| 20260508074527 | 2 | 252 | 0.0 | 0.0 | 0.00 | 0.00 | 0.00 | 93 | 1016.6 |
| 20260508073030 | 2 | 252 | 0.0 | 0.0 | 0.00 | 0.00 | 0.00 | 93 | 1016.6 |
| 20260508071520 | 2 | 252 | 0.0 | 0.0 | 0.00 | 0.00 | 0.00 | 93 | 1016.6 |
| 20260508070025 | 2 | 252 | 0.0 | 0.0 | 0.00 | 0.00 | 0.00 | 93 | 1016.5 |
| 20260508064522 | 2 | 252 | 0.0 | 0.0 | 0.00 | 0.00 | 0.00 | 93 | 1016.6 |
| 20260508063010 | 2 | 252 | 0.0 | 0.0 | 0.00 | 0.00 | 0.00 | 92 | 1016.7 |
| 20260508061517 | 2 | 252 | 0.0 | 0.0 | 0.00 | 0.00 | 0.00 | 92 | 1016.9 |
| 20260508060009 | 3 | 252 | 0.0 | 0.0 | 0.00 | 0.00 | 0.00 | 92 | 1016.9 |
| 20260508054506 | 3 | 252 | 0.0 | 0.0 | 0.00 | 0.00 | 0.00 | 91 | 1017.0 |
| 20260508053007 | 3 | 252 | 0.0 | 0.0 | 0.00 | 0.00 | 0.00 | 91 | 1016.7 |
| 20260508051513 | 3 | 252 | 0.0 | 0.0 | 0.00 | 0.00 | 0.00 | 91 | 1016.7 |
| 20260508050010 | 3 | 252 | 0.0 | 0.0 | 0.00 | 0.00 | 0.00 | 90 | 1016.6 |
| 20260508044512 | 3 | 252 | 0.0 | 0.0 | 0.00 | 0.00 | 0.00 | 90 | 1016.7 |
| 20260508043005 | 4 | 252 | 0.0 | 0.0 | 0.00 | 0.00 | 0.00 | 89 | 1016.8 |
| 20260508041511 | 4 | 252 | 0.0 | 0.0 | 0.00 | 0.00 | 0.00 | 88 | 1016.8 |
| 20260508040033 | 5 | 252 | 0.0 | 0.0 | 0.00 | 0.00 | 0.00 | 87 | 1016.8 |
| 20260508034511 | 5 | 252 | 0.0 | 0.0 | 0.00 | 0.00 | 0.00 | 86 | 1016.8 |
| 20260508033017 | 5 | 252 | 0.0 | 0.0 | 0.00 | 0.00 | 0.00 | 85 | 1016.8 |
| 20260508031513 | 6 | 252 | 0.0 | 0.0 | 0.00 | 0.00 | 0.00 | 83 | 1016.9 |
| 20260508030010 | 6 | 252 | 0.0 | 1.6 | 0.00 | 0.00 | 0.00 | 81 | 1016.7 |
| 20260508024522 | 6 | 252 | 0.0 | 3.2 | 0.00 | 0.00 | 0.00 | 79 | 1016.6 |
| 20260508023015 | 7 | 252 | 1.6 | 3.2 | 0.00 | 0.00 | 0.00 | 78 | 1016.3 |
| 20260508021515 | 7 | 252 | 0.0 | 0.0 | 0.00 | 0.00 | 0.00 | 78 | 1016.1 |
| 20260508020012 | 7 | 252 | 0.0 | 0.0 | 0.00 | 0.00 | 0.00 | 74 | 1016.0 |
| 20260508014513 | 8 | 252 | 0.0 | 3.2 | 0.00 | 0.00 | 0.00 | 72 | 1015.6 |
| 20260508013017 | 9 | 252 | 0.0 | 0.0 | 0.00 | 0.00 | 0.00 | 68 | 1015.4 |
| 20260508011518 | 10 | 252 | 0.0 | 0.0 | 0.00 | 0.00 | 0.00 | 64 | 1015.2 |
| 20260508010020 | 11 | 252 | 0.0 | 3.2 | 0.00 | 0.00 | 0.00 | 60 | 1015.0 |
| 20260508004510 | 12 | 252 | 0.0 | 3.2 | 0.00 | 0.00 | 0.00 | 57 | 1014.9 |
| 20260508003014 | 13 | 252 | 0.0 | 1.6 | 0.00 | 0.00 | 0.00 | 54 | 1014.7 |
| 20260508001519 | 14 | 252 | 0.0 | 3.2 | 0.00 | 0.00 | 0.00 | 47 | 1014.6 |
| 20260508000021 | 15 | 276 | 1.6 | 4.8 | 0.00 | 0.00 | 0.00 | 42 | 1014.4 |
| 20260507234540 | 15 | 137 | 1.6 | 4.8 | 0.00 | 0.00 | 0.00 | 41 | 1014.3 |
| 20260507233018 | 16 | 324 | 0.0 | 9.7 | 0.00 | 0.00 | 0.00 | 34 | 1014.1 |
| 20260507231515 | 17 | 86 | 0.0 | 14.5 | 0.00 | 0.00 | 0.00 | 33 | 1013.9 |
| 20260507230024 | 17 | 309 | 4.8 | 11.3 | 0.00 | 0.00 | 0.00 | 31 | 1013.9 |
| 20260507224522 | 17 | 341 | 4.8 | 14.5 | 0.00 | 0.00 | 0.00 | 32 | 1014.0 |
| 20260507223020 | 18 | 42 | 4.8 | 14.5 | 0.00 | 0.00 | 0.00 | 32 | 1013.9 |
| 20260507221531 | 18 | 262 | 4.8 | 16.1 | 0.00 | 0.00 | 0.00 | 32 | 1013.8 |
| 20260507220021 | 18 | 234 | 6.4 | 17.7 | 0.00 | 0.00 | 0.00 | 34 | 1013.8 |
| 20260507214524 | 18 | 245 | 4.8 | 17.7 | 0.00 | 0.00 | 0.00 | 33 | 1013.7 |
| 20260507213028 | 18 | 311 | 4.8 | 17.7 | 0.00 | 0.00 | 0.00 | 33 | 1013.6 |
| 20260507211528 | 18 | 272 | 6.4 | 12.9 | 0.00 | 0.00 | 0.00 | 34 | 1013.1 |
| 20260507210025 | 18 | 201 | 3.2 | 20.9 | 0.00 | 0.00 | 0.00 | 36 | 1013.3 |
| 20260507204522 | 18 | 255 | 1.6 | 19.3 | 0.00 | 0.00 | 0.00 | 38 | 1013.0 |
| 20260507203026 | 18 | 217 | 4.8 | 16.1 | 0.00 | 0.00 | 0.00 | 37 | 1012.9 |
| 20260507201525 | 18 | 104 | 6.4 | 16.1 | 0.00 | 0.00 | 0.00 | 34 | 1012.9 |
| 20260507200025 | 18 | 257 | 3.2 | 14.5 | 0.00 | 0.00 | 0.00 | 37 | 1013.0 |
| 20260507194531 | 18 | 236 | 8.0 | 16.1 | 0.00 | 0.00 | 0.00 | 35 | 1013.3 |
| 20260507193024 | 18 | 254 | 1.6 | 12.9 | 0.00 | 0.00 | 0.00 | 39 | 1013.2 |
| 20260507191526 | 18 | 180 | 4.8 | 14.5 | 0.00 | 0.00 | 0.00 | 41 | 1013.3 |
| 20260507190040 | 17 | 327 | 4.8 | 24.1 | 0.00 | 0.00 | 0.00 | 39 | 1013.6 |
| 20260507184503 | 17 | 244 | 6.4 | 14.5 | 0.00 | 0.00 | 0.00 | 42 | 1013.8 |
| 20260507183006 | 16 | 246 | 4.8 | 17.7 | 0.00 | 0.00 | 0.00 | 44 | 1013.8 |
| 20260507181506 | 17 | 247 | 3.2 | 11.3 | 0.00 | 0.00 | 0.00 | 42 | 1014.0 |
| 20260507180014 | 17 | 147 | 3.2 | 19.3 | 0.00 | 0.00 | 0.00 | 54 | 1014.0 |
| 20260507174517 | 16 | 291 | 3.2 | 12.9 | 0.00 | 0.00 | 0.00 | 44 | 1014.1 |
| 20260507173016 | 16 | 336 | 4.8 | 12.9 | 0.00 | 0.00 | 0.00 | 47 | 1014.5 |
| 20260507171505 | 16 | 295 | 3.2 | 24.1 | 0.00 | 0.00 | 0.00 | 47 | 1014.3 |